createdAt,value
2023-03-05T00:00:51.125Z,18.3
2023-03-05T00:06:28.314Z,18.2
2023-03-05T00:12:21.713Z,18.3
2023-03-05T00:18:13.311Z,18.3
2023-03-05T00:23:35.453Z,18.1
2023-03-05T00:29:12.535Z,17.9
2023-03-05T00:35:07.297Z,17.8
2023-03-05T00:41:01.232Z,17.5
2023-03-05T00:46:54.720Z,17.3
2023-03-05T00:52:47.062Z,17.4
2023-03-05T00:58:39.570Z,17.5
2023-03-05T01:04:33.072Z,17.4
2023-03-05T01:10:25.395Z,17.3
2023-03-05T01:16:02.486Z,17.2
2023-03-05T01:21:55.760Z,17.1
2023-03-05T01:27:32.053Z,16.9
2023-03-05T01:38:49.092Z,17.2
2023-03-05T01:44:42.202Z,17.3
2023-03-05T01:50:19.718Z,17.1
2023-03-05T01:56:13.053Z,16.9
2023-03-05T02:02:06.244Z,16.8
2023-03-05T02:07:43.027Z,16.7
2023-03-05T02:13:20.271Z,16.7
2023-03-05T02:18:56.751Z,16.9
2023-03-05T02:24:49.331Z,16.9
2023-03-05T02:30:26.211Z,16.8
2023-03-05T02:36:03.163Z,16.7
2023-03-05T02:41:56.626Z,16.6
2023-03-05T02:47:48.858Z,16.5
2023-03-05T02:53:41.616Z,16.4
2023-03-05T02:59:34.872Z,16.6
2023-03-05T03:05:28.650Z,16.8
2023-03-05T03:10:49.924Z,16.7
2023-03-05T03:16:27.987Z,16.6
2023-03-05T03:22:20.942Z,16.5
2023-03-05T03:27:57.981Z,16.4
2023-03-05T03:33:36.206Z,16.3
2023-03-05T03:39:13.028Z,16.2
2023-03-05T03:45:05.028Z,16.1
2023-03-05T03:50:42.203Z,16.4
2023-03-05T03:56:33.682Z,16.5
2023-03-05T04:02:26.802Z,16.5
2023-03-05T04:08:18.591Z,16.4
2023-03-05T04:14:10.957Z,16.3
2023-03-05T04:19:48.802Z,16.2
2023-03-05T04:25:25.669Z,16.1
2023-03-05T04:31:18.336Z,16.1
2023-03-05T04:37:11.997Z,16.1
2023-03-05T04:43:04.308Z,16.4
2023-03-05T04:48:56.479Z,16.5
2023-03-05T04:54:48.578Z,16.4
2023-03-05T05:00:11.648Z,16.3
2023-03-05T05:05:49.190Z,16.2
2023-03-05T05:11:41.313Z,16.1
2023-03-05T05:17:34.622Z,16
2023-03-05T05:23:27.811Z,16.3
2023-03-05T05:29:20.461Z,16.4
2023-03-05T05:35:13.278Z,16.3
2023-03-05T05:41:06.436Z,16.3
2023-03-05T05:46:59.463Z,16.1
2023-03-05T05:52:52.920Z,16
2023-03-05T05:58:30.064Z,15.9
2023-03-05T06:04:23.360Z,15.9
2023-03-05T06:10:17.949Z,16.1
2023-03-05T06:16:11.883Z,16.3
2023-03-05T06:22:12.410Z,16.4
2023-03-05T06:28:04.551Z,16.3
2023-03-05T06:33:57.645Z,16.1
2023-03-05T06:39:50.235Z,16.1
2023-03-05T06:45:43.650Z,15.9
2023-03-05T06:51:20.977Z,15.9
2023-03-05T06:57:14.400Z,16.1
2023-03-05T07:03:07.990Z,16.3
2023-03-05T07:09:00.680Z,16.2
2023-03-05T07:14:55.496Z,16.1
2023-03-05T07:20:49.040Z,15.9
2023-03-05T07:26:41.692Z,15.9
2023-03-05T07:32:34.969Z,15.9
2023-03-05T07:38:28.053Z,16
2023-03-05T07:44:05.990Z,16.2
2023-03-05T07:49:58.867Z,16.2
2023-03-05T07:55:37.195Z,16.1
2023-03-05T08:01:31.476Z,16
2023-03-05T08:07:25.150Z,15.9
2023-03-05T08:13:18.225Z,15.8
2023-03-05T08:19:11.900Z,15.9
2023-03-05T08:24:49.167Z,16.1
2023-03-05T08:30:43.401Z,16
2023-03-05T08:36:37.787Z,15.9
2023-03-05T08:42:31.250Z,15.9
2023-03-05T08:48:24.563Z,15.8
2023-03-05T08:54:17.889Z,15.8
2023-03-05T09:00:10.068Z,15.8
2023-03-05T09:05:48.631Z,15.9
2023-03-05T09:11:41.082Z,16.1
2023-03-05T09:17:33.993Z,16.1
2023-03-05T09:23:27.662Z,16
2023-03-05T09:29:21.356Z,15.9
2023-03-05T09:35:15.217Z,15.8
2023-03-05T09:41:08.460Z,15.8
2023-03-05T09:47:01.847Z,16.1
2023-03-05T09:52:54.647Z,16.3
2023-03-05T09:58:46.441Z,16.2
2023-03-05T10:04:39.789Z,16.1
2023-03-05T10:10:32.126Z,16.1
2023-03-05T10:16:25.133Z,16.3
2023-03-05T10:21:47.667Z,16.3
2023-03-05T10:27:39.656Z,16.2
2023-03-05T10:33:33.683Z,16.1
2023-03-05T10:39:27.751Z,16.1
2023-03-05T10:45:20.233Z,16.3
2023-03-05T10:51:13.853Z,16.3
2023-03-05T10:56:51.530Z,16.2
2023-03-05T11:02:44.791Z,16.1
2023-03-05T11:08:39.990Z,16.3
2023-03-05T11:14:18.205Z,16.3
2023-03-05T11:20:13.109Z,16.3
2023-03-05T11:26:08.545Z,16.2
2023-03-05T11:32:08.366Z,16.1
2023-03-05T11:37:46.002Z,16.3
2023-03-05T11:43:39.714Z,16.4
2023-03-05T11:49:35.293Z,16.3
2023-03-05T11:55:28.868Z,16.2
2023-03-05T12:01:23.030Z,16.3
2023-03-05T12:07:03.425Z,16.4
2023-03-05T12:12:56.218Z,16.3
2023-03-05T12:18:50.028Z,16.2
2023-03-05T12:24:11.659Z,16.1
2023-03-05T12:30:05.549Z,16.2
2023-03-05T12:36:05.770Z,16.3
2023-03-05T12:42:18.775Z,16.3
2023-03-05T12:47:57.224Z,16.2
2023-03-05T12:53:35.056Z,16.1
2023-03-05T12:59:14.406Z,16.3
2023-03-05T13:04:52.328Z,16.3
2023-03-05T13:10:46.088Z,16.3
2023-03-05T13:16:41.118Z,16.1
2023-03-05T13:22:33.951Z,16
2023-03-05T13:28:27.765Z,16.1
2023-03-05T13:34:20.887Z,16.3
2023-03-05T13:40:24.308Z,16.1
2023-03-05T13:46:19.202Z,16
2023-03-05T13:52:13.076Z,15.9
2023-03-05T13:58:09.134Z,15.8
2023-03-05T14:04:07.724Z,16
2023-03-05T14:10:00.643Z,16.1
2023-03-05T14:15:38.589Z,16.1
2023-03-05T14:21:01.061Z,16.1
2023-03-05T14:27:02.611Z,15.9
2023-03-05T14:32:55.950Z,15.9
2023-03-05T14:38:34.609Z,16.1
2023-03-05T14:44:13.245Z,16.1
2023-03-05T14:49:33.725Z,16.1
2023-03-05T14:55:10.856Z,16
2023-03-05T15:01:06.651Z,15.9
2023-03-05T15:06:59.271Z,15.9
2023-03-05T15:12:52.121Z,16.1
2023-03-05T15:18:45.759Z,16.1
2023-03-05T15:24:07.753Z,16
2023-03-05T15:29:45.910Z,15.9
2023-03-05T15:35:11.481Z,15.8
2023-03-05T15:40:33.033Z,15.7
2023-03-05T15:46:10.385Z,15.8
2023-03-05T15:51:50.269Z,15.9
2023-03-05T15:57:26.469Z,16
2023-03-05T16:03:03.744Z,15.9
2023-03-05T16:08:42.433Z,15.8
2023-03-05T16:14:19.379Z,15.7
2023-03-05T16:19:58.408Z,15.7
2023-03-05T16:25:35.656Z,15.9
2023-03-05T16:31:12.164Z,16
2023-03-05T16:36:34.910Z,16
2023-03-05T16:42:38.059Z,15.9
2023-03-05T16:48:15.799Z,15.8
2023-03-05T16:53:42.170Z,15.6
2023-03-05T16:59:26.742Z,15.6
2023-03-05T17:05:03.541Z,15.8
2023-03-05T17:10:42.176Z,15.8
2023-03-05T17:16:19.918Z,15.8
2023-03-05T17:21:58.894Z,15.7
2023-03-05T17:27:37.245Z,15.6
2023-03-05T17:33:15.328Z,15.5
2023-03-05T17:39:02.148Z,15.5
2023-03-05T17:44:55.155Z,15.7
2023-03-05T17:50:32.472Z,15.8
2023-03-05T17:56:26.640Z,15.8
2023-03-05T18:02:19.468Z,15.7
2023-03-05T18:07:56.946Z,15.6
2023-03-05T18:13:34.487Z,15.5
2023-03-05T18:19:28.247Z,15.5
2023-03-05T18:25:24.117Z,15.6
2023-03-05T18:31:16.201Z,15.8
2023-03-05T18:37:09.222Z,15.7
2023-03-05T18:42:51.817Z,15.6
2023-03-05T18:48:29.979Z,15.6
2023-03-05T18:54:23.583Z,15.6
2023-03-05T19:00:16.193Z,15.5
2023-03-05T19:06:09.576Z,15.7
2023-03-05T19:11:47.614Z,15.8
2023-03-05T19:17:26.417Z,15.8
2023-03-05T19:23:18.910Z,15.7
2023-03-05T19:29:11.045Z,15.6
2023-03-05T19:35:05.235Z,15.5
2023-03-05T19:40:57.850Z,15.4
2023-03-05T19:46:51.586Z,15.4
2023-03-05T19:52:48.038Z,15.6
2023-03-05T19:57:55.017Z,15.7
2023-03-05T20:03:49.115Z,15.7
2023-03-05T20:09:27.160Z,15.6
2023-03-05T20:15:21.224Z,15.4
2023-03-05T20:21:14.830Z,15.4
2023-03-05T20:27:12.525Z,15.4
2023-03-05T20:32:53.837Z,15.5
2023-03-05T20:38:48.373Z,15.7
2023-03-05T20:44:26.886Z,15.7
2023-03-05T20:50:04.971Z,15.6
2023-03-05T20:55:43.839Z,15.5
2023-03-05T21:01:06.845Z,15.4
2023-03-05T21:06:14.026Z,15.3
2023-03-05T21:11:53.003Z,15.3
2023-03-05T21:17:46.678Z,15.4
2023-03-05T21:23:26.153Z,15.6
2023-03-05T21:29:04.325Z,15.7
2023-03-05T21:34:59.349Z,15.6
2023-03-05T21:40:36.756Z,15.5
2023-03-05T21:46:30.654Z,15.4
2023-03-05T21:52:22.864Z,15.3
2023-03-05T21:58:15.086Z,15.3
2023-03-05T22:03:52.541Z,15.4
2023-03-05T22:09:29.878Z,15.5
2023-03-05T22:15:22.764Z,15.6
2023-03-05T22:21:00.463Z,15.6
2023-03-05T22:26:53.227Z,15.6
2023-03-05T22:32:30.318Z,15.4
2023-03-05T22:38:23.752Z,15.4
2023-03-05T22:43:45.967Z,15.3
2023-03-05T22:49:37.647Z,15.2
2023-03-05T22:55:30.404Z,15.3
2023-03-05T23:00:36.544Z,15.4
2023-03-05T23:06:30.202Z,15.5
2023-03-05T23:12:23.183Z,15.5
2023-03-05T23:17:45.181Z,15.4
2023-03-05T23:23:21.844Z,15.4
2023-03-05T23:28:59.260Z,15.3
2023-03-05T23:34:37.517Z,15.2
2023-03-05T23:40:14.622Z,15.3
2023-03-05T23:45:36.810Z,15.4
2023-03-05T23:51:30.422Z,15.6
2023-03-05T23:56:55.338Z,15.4
